Terminal Aerodrome Forecast
Issued by NWS

Home | Current Version | Previous Version | Text Only | Print | Product List | Glossary On
Versions: 1 2 3 4 5 6 7 8 9 10 11 12 13 14 15 16
000
FTUS43 KGRR 260533
TAFBTL
TAF
KBTL 260533Z 2606/2706 VRB03KT P6SM SCT100
     FM261500 29008KT P6SM BKN200
     FM270100 35003KT P6SM SCT120 BKN200=

USA.gov is the U.S. government's official web portal to all federal, state and local government web resources and services.